EST,Max TemperatureF,Mean TemperatureF,Min TemperatureF,Max Dew PointF,MeanDew PointF,Min DewpointF,Max Humidity, Mean Humidity, Min Humidity, Max Sea Level PressureIn, Mean Sea Level PressureIn, Min Sea Level PressureIn, Max VisibilityMiles, Mean VisibilityMiles, Min VisibilityMiles, Max Wind SpeedMPH, Mean Wind SpeedMPH, Max Gust SpeedMPH,PrecipitationIn, CloudCover, Events, WindDirDegrees
2012-11-1,51,48,46,39,38,37,71,64,58,29.63,29.60,29.57,10,10,10,10,8,18,0.00,7,,265
2012-11-2,53,48,43,37,31,28,71,53,43,29.74,29.66,29.60,10,10,10,17,11,24,0.00,7,,306
2012-11-3,53,46,41,32,30,29,67,58,43,29.93,29.83,29.75,10,10,10,15,9,26,0.00,3,,307
2012-11-4,52,44,37,32,31,29,76,61,48,29.98,29.95,29.91,10,10,10,13,8,16,0.00,3,,314
2012-11-5,45,40,35,29,24,19,62,53,44,30.18,30.05,29.96,10,10,10,15,11,21,0.00,2,,357
2012-11-6,44,37,30,27,20,18,64,52,37,30.24,30.17,30.07,10,10,10,12,6,,0.00,0,,32
2012-11-7,39,36,32,34,31,28,96,86,63,30.05,29.81,29.71,10,3,1,29,19,44,0.62,7,Rain-Snow,17
2012-11-8,44,38,33,31,29,24,92,77,45,29.89,29.75,29.71,10,4,1,17,14,29,0.02,8,Snow,347
2012-11-9,52,44,35,33,26,18,77,51,33,30.20,30.05,29.90,10,10,10,17,10,26,0.00,0,,316
2012-11-10,53,45,37,42,37,32,89,72,57,30.44,30.33,30.20,10,9,6,6,2,,0.00,4,,271
2012-11-11,60,50,39,51,46,37,97,86,67,30.51,30.48,30.44,10,8,3,16,4,22,0.00,0,,196
2012-11-12,64,54,43,58,53,43,100,93,73,30.48,30.40,30.22,10,6,0,20,5,31,0.01,4,Fog,185
2012-11-13,59,49,39,58,46,28,100,84,60,30.44,30.26,30.14,10,10,8,15,10,23,0.17,6,Rain,327
2012-11-14,48,42,35,31,28,26,76,62,46,30.51,30.47,30.44,10,10,10,16,8,21,0.00,1,,16
2012-11-15,42,38,34,32,30,27,82,73,61,30.46,30.38,30.30,10,10,10,15,6,25,0.00,2,,35
2012-11-16,46,41,36,32,28,21,82,61,45,30.44,30.33,30.29,10,10,10,10,4,,0.00,0,,9
2012-11-17,51,44,36,33,30,26,79,63,43,30.63,30.57,30.43,10,10,9,14,8,22,0.00,0,,27
2012-11-18,50,42,35,38,34,31,97,74,59,30.67,30.62,30.57,10,9,5,10,6,,0.00,1,,39
2012-11-19,46,42,37,39,37,34,89,80,71,30.55,30.41,30.25,10,10,10,13,8,,0.00,5,,35
2012-11-20,50,43,36,37,35,33,97,79,56,30.23,30.17,30.12,10,10,8,12,5,,0.00,0,,22
2012-11-21,51,42,37,36,35,34,93,78,54,30.20,30.17,30.14,10,10,10,10,6,,0.00,0,,16
2012-11-22,55,46,39,41,39,37,93,70,54,30.24,30.22,30.20,10,9,8,8,6,,0.00,0,,42
2012-11-23,39,,39,37,37,37,93,93,93,30.06,30.06,30.06,5,5,5,0,0,,0.00,0,,-1
2012-11-24,48,42,36,44,21,14,90,46,36,29.84,29.74,29.66,10,10,8,20,13,32,0.00,3,,306
2012-11-25,41,38,34,22,19,14,57,48,41,29.97,29.90,29.83,10,10,10,16,10,24,0.00,3,,282
2012-11-26,48,41,34,24,21,18,64,50,30,30.26,30.11,29.97,10,10,9,16,7,23,0.00,1,,286
2012-11-27,41,38,35,36,33,24,100,86,60,30.30,30.24,30.19,10,8,3,13,5,22,0.35,8,Rain,39
2012-11-28,41,36,30,34,27,21,87,71,49,30.28,30.21,30.17,10,10,10,13,8,18,0.00,4,,338
2012-11-29,44,36,28,25,23,21,72,57,42,30.35,30.31,30.27,10,10,10,14,7,,0.00,0,,261
2012-11-30,46,38,30,35,29,24,82,69,49,30.45,30.40,30.32,10,9,5,12,5,20,0.00,4,,72